Terminal Aerodrome Forecast
Issued by NWS

Home | Current Version | Previous Version | Text Only | Print | Product List | Glossary Off
Versions: 1 2 3 4 5 6 7 8 9 10 11 12 13 14 15 16

553
FTUS43 KBIS 202336
TAFMOT
TAF
KMOT 202336Z 2100/2124 21018G25KT P6SM FEW090
     FM210100 18010KT P6SM SKC
     FM210500 17007KT P6SM SCT250
     FM211000 20007KT P6SM BKN120
     FM211700 25010KT P6SM BKN150
     FM212000 30011KT P6SM SCT300=

USA.gov is the U.S. government's official web portal to all federal, state and local government web resources and services.